Time;durP1;ratioP1;P1;durP2;ratioP2;P2;SDS_P1;SDS_P2;PMS_P1;PMS_P2;Temp;Humidity;BMP_temperature;BMP_pressure;BME280_temperature;BME280_humidity;BME280_pressure;Samples;Min_cycle;Max_cycle;Signal;HPM_P1;HPM_P2
2023/03/27 00:01:21;;;;;;;2.73;1.03;;;1.20;97.00;;;;;;4978186;28;20313;-75
2023/03/27 00:03:49;;;;;;;2.23;0.90;;;1.20;97.20;;;;;;4981023;28;20226;-75
2023/03/27 00:06:18;;;;;;;5.70;1.20;;;1.20;97.30;;;;;;4978314;28;20230;-75
2023/03/27 00:08:49;;;;;;;5.97;1.27;;;1.10;97.40;;;;;;4978584;28;20232;-76
2023/03/27 00:11:16;;;;;;;7.03;1.20;;;1.10;97.70;;;;;;4978906;28;20223;-75
2023/03/27 00:13:43;;;;;;;2.37;1.03;;;1.10;97.70;;;;;;4979466;28;20235;-76
2023/03/27 00:16:10;;;;;;;5.33;1.00;;;1.00;97.80;;;;;;4976652;28;20977;-76
2023/03/27 00:18:37;;;;;;;2.70;1.30;;;1.00;97.90;;;;;;4972410;28;20226;-75
2023/03/27 00:21:04;;;;;;;2.93;1.30;;;0.90;98.20;;;;;;4976949;28;20233;-75
2023/03/27 00:23:31;;;;;;;6.70;1.37;;;0.90;98.40;;;;;;4977072;28;20666;-75
2023/03/27 00:26:00;;;;;;;4.07;1.20;;;0.90;98.80;;;;;;4977261;28;22140;-76
2023/03/27 00:28:29;;;;;;;3.17;1.00;;;0.80;98.50;;;;;;4978282;28;20228;-74
2023/03/27 00:30:57;;;;;;;5.80;1.17;;;0.80;98.60;;;;;;4977260;28;20216;-76
2023/03/27 00:33:24;;;;;;;2.53;1.17;;;0.80;98.70;;;;;;4977145;28;20416;-75
2023/03/27 00:35:51;;;;;;;4.47;1.10;;;0.80;98.90;;;;;;4976310;28;20230;-75
2023/03/27 00:38:19;;;;;;;2.70;1.10;;;0.70;98.90;;;;;;4976898;28;20366;-75
2023/03/27 00:40:49;;;;;;;8.63;1.30;;;0.70;98.90;;;;;;4976596;28;21173;-75
2023/03/27 00:43:22;;;;;;;4.60;1.90;;;0.70;98.90;;;;;;4974141;28;20234;-75
2023/03/27 00:45:52;;;;;;;2.93;1.23;;;0.60;99.20;;;;;;4974684;28;20227;-76
2023/03/27 00:48:19;;;;;;;3.70;1.00;;;0.60;99.30;;;;;;4974698;28;20305;-76
2023/03/27 00:50:47;;;;;;;4.33;1.20;;;0.60;99.40;;;;;;4980383;28;20244;-75
2023/03/27 00:53:16;;;;;;;5.23;1.10;;;0.50;99.50;;;;;;4975816;28;20913;-75
2023/03/27 00:55:46;;;;;;;4.33;1.70;;;0.50;99.60;;;;;;4970841;28;20227;-75
2023/03/27 00:58:19;;;;;;;3.53;1.00;;;0.50;99.80;;;;;;4971536;28;21197;-75
2023/03/27 01:00:51;;;;;;;2.83;0.97;;;0.50;99.90;;;;;;4973213;28;20231;-75
2023/03/27 01:03:19;;;;;;;2.40;1.20;;;0.50;99.90;;;;;;4974853;28;20298;-75
2023/03/27 01:05:48;;;;;;;4.20;1.20;;;0.50;99.90;;;;;;4975278;28;20705;-76
2023/03/27 01:08:17;;;;;;;6.80;1.23;;;0.50;99.90;;;;;;4970554;28;20235;-75
2023/03/27 01:10:56;;;;;;;3.27;1.20;;;0.50;99.90;;;;;;4977767;28;20316;-75
2023/03/27 01:13:38;;;;;;;6.53;1.20;;;0.60;99.90;;;;;;4979343;28;20725;-74
2023/03/27 01:16:11;;;;;;;5.47;1.10;;;0.60;99.90;;;;;;4970721;28;20276;-75
2023/03/27 01:18:53;;;;;;;5.30;1.30;;;0.60;99.90;;;;;;4972263;28;20846;-76
2023/03/27 01:21:50;;;;;;;7.20;1.43;;;0.60;99.90;;;;;;4990032;28;20285;-75
2023/03/27 01:24:42;;;;;;;3.57;1.10;;;0.60;99.90;;;;;;4973618;28;20234;-74
2023/03/27 01:27:17;;;;;;;5.27;1.30;;;0.50;99.90;;;;;;4969551;28;20889;-75
2023/03/27 01:29:59;;;;;;;3.73;1.10;;;0.50;99.90;;;;;;4971016;28;20226;-75
2023/03/27 01:32:55;;;;;;;4.53;1.17;;;0.50;99.90;;;;;;4978064;28;20239;-75
2023/03/27 01:35:38;;;;;;;3.30;1.20;;;0.40;99.90;;;;;;4976019;28;20223;-75
2023/03/27 01:38:21;;;;;;;3.43;1.20;;;0.40;99.90;;;;;;4972028;28;20249;-76
2023/03/27 01:40:54;;;;;;;4.33;1.10;;;0.30;99.90;;;;;;4977943;28;20237;-76
2023/03/27 01:43:30;;;;;;;2.93;1.27;;;0.30;99.90;;;;;;4980174;28;20717;-76
2023/03/27 01:46:06;;;;;;;6.13;1.50;;;0.20;99.90;;;;;;4981896;28;20220;-76
2023/03/27 01:48:39;;;;;;;3.13;1.33;;;0.20;99.90;;;;;;4981528;28;20235;-76
2023/03/27 01:51:12;;;;;;;5.83;1.20;;;0.10;99.90;;;;;;4974728;28;20902;-76
2023/03/27 01:53:44;;;;;;;6.20;1.10;;;0.10;99.90;;;;;;4980894;28;20231;-75
2023/03/27 01:56:17;;;;;;;7.03;1.23;;;0.10;99.90;;;;;;4979296;28;20234;-75
2023/03/27 01:58:46;;;;;;;6.17;1.30;;;0.10;99.90;;;;;;4978017;28;20230;-76
2023/03/27 02:01:18;;;;;;;4.20;1.10;;;0.00;99.90;;;;;;4974085;28;20310;-75
2023/03/27 02:03:48;;;;;;;5.33;1.10;;;0.00;99.90;;;;;;4993018;28;20230;-75
2023/03/27 02:06:20;;;;;;;4.37;1.23;;;0.00;99.90;;;;;;4980393;28;20251;-74
2023/03/27 02:08:55;;;;;;;4.77;1.20;;;0.00;99.90;;;;;;4979734;28;20230;-75
2023/03/27 02:11:27;;;;;;;3.33;1.03;;;-0.10;99.90;;;;;;4972701;28;20320;-74
2023/03/27 02:13:57;;;;;;;2.63;1.13;;;-0.10;99.90;;;;;;4980933;28;20286;-74
2023/03/27 02:16:32;;;;;;;3.53;1.27;;;-0.10;99.90;;;;;;4970839;28;20791;-75
2023/03/27 02:19:03;;;;;;;4.00;1.20;;;-0.10;99.90;;;;;;4980295;28;20313;-75
2023/03/27 02:21:31;;;;;;;6.50;1.60;;;-0.10;99.90;;;;;;4973500;28;21064;-75
2023/03/27 02:24:01;;;;;;;2.87;1.33;;;-0.10;99.90;;;;;;4975058;28;20218;-75
2023/03/27 02:26:30;;;;;;;2.67;1.00;;;-0.10;99.90;;;;;;4975753;28;20246;-74
2023/03/27 02:29:42;;;;;;;5.53;1.20;;;-0.20;99.90;;;;;;4974816;28;20757;-75
2023/03/27 02:32:24;;;;;;;4.40;1.50;;;-0.20;99.90;;;;;;4940662;28;20728;-75
2023/03/27 02:35:19;;;;;;;4.33;1.17;;;-0.20;99.90;;;;;;4980558;28;20728;-76
2023/03/27 02:37:55;;;;;;;2.67;1.30;;;-0.20;99.90;;;;;;4973902;28;20313;-74
2023/03/27 02:41:05;;;;;;;3.87;1.17;;;-0.20;99.90;;;;;;4958943;28;20227;-76
2023/03/27 02:43:57;;;;;;;3.90;1.30;;;-0.20;99.90;;;;;;4974824;28;20230;-74
2023/03/27 02:46:44;;;;;;;3.33;1.60;;;-0.30;99.90;;;;;;4976858;28;20249;-75
2023/03/27 02:49:15;;;;;;;4.83;1.60;;;-0.30;99.90;;;;;;4978447;28;20298;-76
2023/03/27 02:51:45;;;;;;;6.00;1.30;;;-0.30;99.90;;;;;;4978099;28;20231;-75
2023/03/27 02:54:17;;;;;;;5.57;1.27;;;-0.30;99.90;;;;;;4979644;28;21005;-74
2023/03/27 02:56:50;;;;;;;3.97;1.50;;;-0.30;99.90;;;;;;4980531;28;20243;-75
2023/03/27 02:59:34;;;;;;;6.10;1.50;;;-0.30;99.90;;;;;;4992003;28;20283;-75
2023/03/27 03:02:03;;;;;;;3.93;1.30;;;-0.30;99.90;;;;;;4990561;28;20262;-75
2023/03/27 03:04:41;;;;;;;5.10;1.57;;;-0.30;99.90;;;;;;4977586;28;20886;-74
2023/03/27 03:07:21;;;;;;;7.27;1.50;;;-0.30;99.90;;;;;;4967438;28;20230;-74
2023/03/27 03:09:48;;;;;;;6.00;1.40;;;-0.30;99.90;;;;;;4977203;28;20225;-73
2023/03/27 03:12:15;;;;;;;6.50;1.70;;;-0.30;99.90;;;;;;4973792;28;20231;-75
2023/03/27 03:14:46;;;;;;;4.90;1.10;;;-0.30;99.90;;;;;;4996043;28;20257;-73
2023/03/27 03:17:15;;;;;;;4.00;1.20;;;-0.30;99.90;;;;;;4971577;28;20217;-75
2023/03/27 03:19:42;;;;;;;6.93;1.40;;;-0.30;99.90;;;;;;4973142;28;20735;-75
2023/03/27 03:22:09;;;;;;;5.20;1.40;;;-0.30;99.90;;;;;;4975282;28;20222;-76
2023/03/27 03:24:40;;;;;;;6.13;1.73;;;-0.30;99.90;;;;;;4973081;28;20671;-75
2023/03/27 03:27:08;;;;;;;8.70;1.40;;;-0.30;99.90;;;;;;4973532;28;20220;-75
2023/03/27 03:29:46;;;;;;;7.37;1.30;;;-0.40;99.90;;;;;;4978161;28;20226;-74
2023/03/27 03:32:18;;;;;;;3.87;1.70;;;-0.40;99.90;;;;;;4976132;28;20258;-76
2023/03/27 03:34:47;;;;;;;5.50;1.53;;;-0.40;99.90;;;;;;4976334;28;20225;-75
2023/03/27 03:37:15;;;;;;;3.43;1.13;;;-0.40;99.90;;;;;;4977875;28;20223;-74
2023/03/27 03:39:42;;;;;;;8.63;1.87;;;-0.40;99.90;;;;;;4975761;28;20313;-76
2023/03/27 03:42:08;;;;;;;4.60;1.30;;;-0.40;99.90;;;;;;4974382;28;20227;-79
2023/03/27 03:44:36;;;;;;;5.07;1.40;;;-0.50;99.90;;;;;;4976360;28;20714;-84
2023/03/27 03:47:15;;;;;;;5.33;1.10;;;-0.40;99.90;;;;;;4977209;28;20226;-77
2023/03/27 03:49:42;;;;;;;6.67;1.53;;;-0.50;99.90;;;;;;4980426;28;20317;-79
2023/03/27 03:52:09;;;;;;;4.03;1.30;;;-0.50;99.90;;;;;;4978620;28;20255;-76
2023/03/27 03:54:37;;;;;;;4.57;1.30;;;-0.50;99.90;;;;;;4976496;28;20253;-79
2023/03/27 03:57:04;;;;;;;5.20;1.53;;;-0.60;99.90;;;;;;4974344;28;20215;-81
2023/03/27 03:59:33;;;;;;;7.73;1.57;;;-0.60;99.90;;;;;;4978769;28;20314;-83
2023/03/27 04:02:27;;;;;;;6.17;1.53;;;-0.60;99.90;;;;;;4977979;28;20225;-77
2023/03/27 04:04:59;;;;;;;6.60;2.07;;;-0.60;99.90;;;;;;4976241;28;20239;-78
2023/03/27 04:07:30;;;;;;;4.67;1.70;;;-0.60;99.90;;;;;;4971464;28;20222;-80
2023/03/27 04:10:05;;;;;;;7.50;1.53;;;-0.60;99.90;;;;;;4979379;28;20287;-80
2023/03/27 04:12:32;;;;;;;6.07;1.50;;;-0.60;99.90;;;;;;4977381;28;20229;-78
2023/03/27 04:15:00;;;;;;;7.63;1.60;;;-0.60;99.90;;;;;;4979527;28;20237;-78
2023/03/27 04:17:48;;;;;;;5.47;1.53;;;-0.60;99.90;;;;;;4974253;28;20242;-78
2023/03/27 04:20:16;;;;;;;7.43;1.87;;;-0.60;99.90;;;;;;4977382;28;20248;-80
2023/03/27 04:22:45;;;;;;;5.57;2.00;;;-0.60;99.90;;;;;;4979651;28;20233;-80
2023/03/27 04:25:15;;;;;;;7.57;1.70;;;-0.60;99.90;;;;;;4974305;28;20222;-77
2023/03/27 04:27:45;;;;;;;5.07;1.50;;;-0.60;99.90;;;;;;4979828;28;20583;-81
2023/03/27 04:30:21;;;;;;;5.13;1.80;;;-0.60;99.90;;;;;;4980042;28;20583;-78
2023/03/27 04:33:17;;;;;;;3.43;1.37;;;-0.60;99.90;;;;;;4979395;28;20276;-81
2023/03/27 04:36:09;;;;;;;5.80;1.60;;;-0.50;99.90;;;;;;4970072;28;20227;-78
2023/03/27 04:38:46;;;;;;;4.93;1.47;;;-0.50;99.90;;;;;;4977576;28;20237;-77
2023/03/27 04:41:16;;;;;;;8.30;2.10;;;-0.50;99.90;;;;;;4983262;28;20692;-77
2023/03/27 04:43:44;;;;;;;7.13;1.90;;;-0.40;99.90;;;;;;4978782;28;20266;-77
2023/03/27 04:46:11;;;;;;;3.40;1.77;;;-0.40;99.90;;;;;;4979034;28;20294;-81
2023/03/27 04:48:41;;;;;;;6.60;2.20;;;-0.40;99.90;;;;;;4980488;28;20224;-78
2023/03/27 04:51:19;;;;;;;6.53;1.90;;;-0.40;99.90;;;;;;4972185;28;20615;-81
2023/03/27 04:53:46;;;;;;;9.40;2.03;;;-0.40;99.90;;;;;;4983060;28;20235;-84
2023/03/27 04:56:15;;;;;;;5.77;2.40;;;-0.40;99.90;;;;;;4977767;28;20281;-78
2023/03/27 04:58:45;;;;;;;7.57;1.90;;;-0.40;99.90;;;;;;4981110;28;20818;-78
2023/03/27 05:01:13;;;;;;;5.23;2.30;;;-0.40;99.90;;;;;;4978816;28;20227;-80
2023/03/27 05:04:01;;;;;;;11.63;2.57;;;-0.40;99.90;;;;;;4978672;28;20873;-80
2023/03/27 05:06:54;;;;;;;5.67;2.03;;;-0.40;99.90;;;;;;4976623;28;20298;-82
2023/03/27 05:09:22;;;;;;;7.33;2.20;;;-0.40;99.90;;;;;;4978712;28;20643;-82
2023/03/27 05:11:49;;;;;;;7.70;2.27;;;-0.40;99.90;;;;;;4977769;28;20685;-80
2023/03/27 05:14:17;;;;;;;9.30;2.30;;;-0.30;99.90;;;;;;4982187;28;21051;-81
2023/03/27 05:16:44;;;;;;;8.70;2.37;;;-0.30;99.90;;;;;;4983757;28;20322;-81
2023/03/27 05:19:12;;;;;;;5.77;2.37;;;-0.30;99.90;;;;;;4984032;28;20659;-81
2023/03/27 05:21:45;;;;;;;8.50;2.40;;;-0.30;99.90;;;;;;4979738;28;20235;-81
2023/03/27 05:24:11;;;;;;;3.53;1.73;;;-0.30;99.90;;;;;;4986571;28;20245;-81
2023/03/27 05:26:39;;;;;;;10.40;2.40;;;-0.30;99.90;;;;;;4984913;28;20234;-81
2023/03/27 05:29:07;;;;;;;10.43;2.43;;;-0.30;99.90;;;;;;4988875;28;20858;-82
2023/03/27 05:31:37;;;;;;;8.03;2.03;;;-0.20;99.90;;;;;;4987249;28;20229;-81
2023/03/27 05:34:37;;;;;;;8.40;2.20;;;-0.30;99.90;;;;;;4972965;28;20303;-82
2023/03/27 05:37:05;;;;;;;7.90;2.03;;;-0.20;99.90;;;;;;4980593;28;20219;-81
2023/03/27 05:39:36;;;;;;;6.17;2.67;;;-0.20;99.90;;;;;;4982947;28;20273;-81
2023/03/27 05:42:08;;;;;;;6.40;2.20;;;-0.20;99.90;;;;;;4979199;28;20219;-83
2023/03/27 05:44:35;;;;;;;8.23;2.30;;;-0.20;99.90;;;;;;4988634;28;21012;-82
2023/03/27 05:47:02;;;;;;;8.50;2.10;;;-0.10;99.90;;;;;;4979960;28;21801;-80
2023/03/27 05:49:31;;;;;;;6.37;2.17;;;-0.10;99.90;;;;;;4981704;28;20235;-81
2023/03/27 05:52:09;;;;;;;5.03;2.10;;;0.10;99.90;;;;;;4978526;28;20226;-81
2023/03/27 05:54:36;;;;;;;4.90;1.90;;;0.10;99.90;;;;;;4977925;28;20926;-80
2023/03/27 05:57:08;;;;;;;7.97;2.23;;;0.20;99.90;;;;;;4982252;28;20255;-80
2023/03/27 05:59:35;;;;;;;7.27;1.83;;;0.40;99.90;;;;;;4982725;28;20270;-80
2023/03/27 06:02:17;;;;;;;6.20;2.37;;;0.50;99.90;;;;;;4972199;28;20321;-81
2023/03/27 06:04:51;;;;;;;6.20;1.80;;;0.80;99.90;;;;;;4986555;28;20253;-80
2023/03/27 06:07:29;;;;;;;7.90;1.83;;;0.90;99.90;;;;;;4984295;28;20229;-80
2023/03/27 06:10:01;;;;;;;5.23;1.63;;;1.20;99.90;;;;;;4987634;28;20231;-80
2023/03/27 06:12:32;;;;;;;5.10;1.90;;;1.40;99.90;;;;;;4982397;28;20250;-80
2023/03/27 06:15:08;;;;;;;6.67;1.90;;;1.60;99.90;;;;;;4986161;28;20686;-80
2023/03/27 06:17:41;;;;;;;3.20;1.80;;;1.80;99.90;;;;;;4985105;28;20915;-80
2023/03/27 06:20:11;;;;;;;6.17;2.20;;;2.10;99.90;;;;;;4986726;28;20334;-80
2023/03/27 06:22:42;;;;;;;11.27;2.00;;;2.20;99.90;;;;;;4978769;28;20795;-80
2023/03/27 06:25:09;;;;;;;4.97;1.63;;;2.30;99.90;;;;;;4986379;28;20318;-80
2023/03/27 06:27:36;;;;;;;4.27;1.47;;;2.40;99.90;;;;;;4980018;28;20227;-82
2023/03/27 06:30:05;;;;;;;5.90;1.77;;;2.50;99.90;;;;;;4980710;28;20219;-82
2023/03/27 06:32:35;;;;;;;4.93;1.83;;;2.60;99.90;;;;;;4991730;28;20226;-83
2023/03/27 06:35:09;;;;;;;6.00;1.67;;;2.70;99.90;;;;;;4984875;28;20296;-81
2023/03/27 06:37:57;;;;;;;6.10;1.93;;;2.90;99.90;;;;;;4982169;28;20310;-81
2023/03/27 06:40:26;;;;;;;8.00;1.80;;;3.00;99.90;;;;;;4989164;28;20240;-86
2023/03/27 06:42:57;;;;;;;5.70;2.20;;;3.10;99.90;;;;;;4992108;28;20228;-85
2023/03/27 06:45:48;;;;;;;4.50;1.73;;;3.20;99.90;;;;;;4989208;28;20238;-83
2023/03/27 06:48:35;;;;;;;5.33;1.87;;;3.20;99.90;;;;;;4983699;28;20754;-82
2023/03/27 06:51:05;;;;;;;7.27;2.13;;;3.30;99.90;;;;;;4987789;28;20307;-86
2023/03/27 06:53:33;;;;;;;2.63;1.37;;;3.40;99.90;;;;;;4984502;28;20223;-84
2023/03/27 06:56:00;;;;;;;6.17;1.73;;;3.40;99.90;;;;;;4987885;28;20784;-81
2023/03/27 06:58:38;;;;;;;6.83;1.80;;;3.50;99.90;;;;;;4986922;28;20309;-82
2023/03/27 07:01:07;;;;;;;2.63;1.40;;;3.50;99.90;;;;;;4987142;28;20218;-82
2023/03/27 07:03:51;;;;;;;7.53;3.43;;;3.50;99.90;;;;;;4985892;28;20236;-81
2023/03/27 07:06:41;;;;;;;4.23;1.53;;;3.50;99.90;;;;;;4959179;28;20231;-80
2023/03/27 07:09:12;;;;;;;20.67;3.40;;;3.40;99.90;;;;;;4980536;28;20299;-79
2023/03/27 07:11:39;;;;;;;18.10;8.27;;;3.20;99.90;;;;;;4982838;28;20231;-80
2023/03/27 07:14:08;;;;;;;7.27;3.90;;;3.10;99.90;;;;;;4981077;28;20230;-80
2023/03/27 07:16:35;;;;;;;19.60;2.43;;;2.90;99.90;;;;;;4979813;28;20311;-81
2023/03/27 07:19:03;;;;;;;6.10;2.20;;;2.90;99.90;;;;;;4983950;28;20235;-81
2023/03/27 07:21:32;;;;;;;4.83;2.13;;;2.90;99.90;;;;;;4993007;28;20233;-79
2023/03/27 07:23:59;;;;;;;11.23;3.50;;;2.90;99.90;;;;;;4982986;28;20496;-80
2023/03/27 07:26:37;;;;;;;7.80;2.13;;;3.00;99.90;;;;;;4981922;28;20229;-80
2023/03/27 07:29:20;;;;;;;7.87;2.13;;;2.90;99.90;;;;;;4984774;28;20246;-80
2023/03/27 07:31:52;;;;;;;4.40;2.23;;;3.00;99.90;;;;;;4985745;28;20225;-81
2023/03/27 07:34:19;;;;;;;4.93;2.17;;;3.00;99.90;;;;;;4982180;28;20275;-81
2023/03/27 07:37:03;;;;;;;7.37;2.10;;;3.10;99.90;;;;;;4992129;28;20326;-85
2023/03/27 07:39:31;;;;;;;9.20;2.90;;;3.10;99.90;;;;;;4972309;28;21011;-80
2023/03/27 07:42:00;;;;;;;3.40;1.30;;;3.20;99.90;;;;;;4994038;28;20829;-81
2023/03/27 07:44:32;;;;;;;5.80;1.80;;;3.20;99.90;;;;;;4975994;28;20722;-80
2023/03/27 07:47:08;;;;;;;4.73;1.60;;;3.20;99.90;;;;;;4976279;28;20251;-80
2023/03/27 07:49:35;;;;;;;3.77;1.50;;;3.30;99.90;;;;;;4978708;28;20308;-80
2023/03/27 07:52:07;;;;;;;4.07;1.63;;;3.30;99.90;;;;;;4975988;28;20224;-84
2023/03/27 07:54:38;;;;;;;2.60;1.60;;;3.40;99.90;;;;;;4977445;28;20402;-79
2023/03/27 07:57:06;;;;;;;5.27;1.57;;;3.50;99.90;;;;;;4973303;28;20225;-85
2023/03/27 07:59:33;;;;;;;18.00;7.60;;;3.80;99.90;;;;;;4978135;28;20315;-81
2023/03/27 08:02:14;;;;;;;8.17;2.30;;;4.20;99.90;;;;;;4977104;28;20226;-81
2023/03/27 08:04:41;;;;;;;4.13;1.20;;;4.60;99.90;;;;;;4980480;28;20279;-80
2023/03/27 08:07:10;;;;;;;3.07;1.33;;;4.90;99.90;;;;;;4976537;28;20242;-80
2023/03/27 08:09:41;;;;;;;4.67;1.20;;;5.30;99.90;;;;;;4978180;28;20393;-82
2023/03/27 08:12:09;;;;;;;2.67;1.10;;;5.60;99.90;;;;;;4950843;28;20249;-80
2023/03/27 08:14:41;;;;;;;7.90;1.90;;;5.90;99.90;;;;;;4976961;28;20227;-81
2023/03/27 08:17:26;;;;;;;9.10;3.30;;;6.30;99.90;;;;;;4978575;28;20310;-81
2023/03/27 08:19:54;;;;;;;5.27;1.60;;;6.70;99.90;;;;;;4978116;28;20228;-81
2023/03/27 08:22:21;;;;;;;6.13;1.30;;;6.90;99.90;;;;;;4982562;28;20407;-80
2023/03/27 08:25:08;;;;;;;8.57;3.50;;;7.20;99.90;;;;;;4982112;28;20982;-85
2023/03/27 08:27:37;;;;;;;4.13;1.60;;;7.50;99.90;;;;;;4971785;28;20240;-81
2023/03/27 08:30:05;;;;;;;6.50;2.03;;;7.80;99.90;;;;;;4983809;28;20250;-81
2023/03/27 08:32:35;;;;;;;6.00;1.63;;;8.10;99.90;;;;;;4972154;28;20402;-80
2023/03/27 08:35:08;;;;;;;3.43;1.30;;;8.50;99.90;;;;;;4980962;28;20226;-81
2023/03/27 08:37:35;;;;;;;3.30;1.20;;;8.90;99.90;;;;;;4977563;28;20326;-81
2023/03/27 08:40:25;;;;;;;1.93;0.90;;;9.10;99.10;;;;;;4976890;28;20703;-81
2023/03/27 08:43:12;;;;;;;6.10;1.10;;;9.40;99.00;;;;;;4972480;28;20232;-80
2023/03/27 08:45:46;;;;;;;5.20;1.30;;;9.70;98.20;;;;;;4990352;28;20233;-83
2023/03/27 08:48:20;;;;;;;2.70;1.10;;;9.90;98.00;;;;;;4971882;28;20230;-82
2023/03/27 08:50:52;;;;;;;5.30;1.20;;;10.10;97.50;;;;;;4978272;28;20225;-81
2023/03/27 08:53:29;;;;;;;5.73;1.27;;;10.10;96.10;;;;;;4980097;28;20244;-80
2023/03/27 08:56:01;;;;;;;2.50;1.17;;;9.90;95.60;;;;;;4978687;28;20905;-80
2023/03/27 08:58:38;;;;;;;7.63;1.30;;;9.70;95.60;;;;;;4979310;28;20903;-80
2023/03/27 09:01:29;;;;;;;3.47;2.20;;;9.40;95.60;;;;;;4977527;28;20756;-81
2023/03/27 09:04:06;;;;;;;2.00;0.83;;;9.20;96.60;;;;;;4983283;28;20230;-85
2023/03/27 09:06:44;;;;;;;3.43;1.10;;;9.10;96.20;;;;;;4990945;28;20229;-81
2023/03/27 09:09:27;;;;;;;1.27;0.87;;;9.10;96.50;;;;;;4983844;28;20938;-83
2023/03/27 09:12:04;;;;;;;6.67;1.17;;;9.20;96.40;;;;;;4985195;28;20361;-80
2023/03/27 09:14:40;;;;;;;3.37;0.90;;;9.30;95.70;;;;;;4983200;28;20233;-83
2023/03/27 09:17:15;;;;;;;4.07;0.80;;;9.50;96.50;;;;;;4977554;28;20505;-82
2023/03/27 09:19:49;;;;;;;3.67;1.00;;;9.60;96.30;;;;;;4986096;28;20314;-81
2023/03/27 09:22:26;;;;;;;3.47;0.90;;;9.90;96.60;;;;;;4984487;28;20313;-81
2023/03/27 09:25:15;;;;;;;4.57;1.10;;;10.20;94.90;;;;;;4983314;28;20214;-80
2023/03/27 09:28:17;;;;;;;2.90;1.13;;;10.20;94.00;;;;;;4983760;28;20234;-83
2023/03/27 09:30:51;;;;;;;4.40;1.13;;;10.10;93.10;;;;;;4981495;28;20868;-81
2023/03/27 09:33:26;;;;;;;2.33;0.93;;;10.00;93.90;;;;;;4980773;28;20317;-80
2023/03/27 09:35:54;;;;;;;4.17;0.80;;;10.00;94.10;;;;;;4979556;28;20844;-82
2023/03/27 09:38:27;;;;;;;3.27;1.00;;;9.90;93.40;;;;;;4981905;28;20240;-80
2023/03/27 09:40:58;;;;;;;6.40;1.80;;;9.70;93.00;;;;;;4983082;28;20312;-80
2023/03/27 09:43:32;;;;;;;5.33;1.13;;;9.60;93.40;;;;;;4977949;28;20226;-79
2023/03/27 09:46:02;;;;;;;4.67;1.00;;;9.60;93.70;;;;;;4978374;28;20257;-80
2023/03/27 09:48:35;;;;;;;3.37;1.10;;;9.70;94.10;;;;;;4983064;28;20325;-79
2023/03/27 09:51:36;;;;;;;4.70;1.10;;;9.80;93.30;;;;;;4976366;28;20229;-80
2023/03/27 09:54:05;;;;;;;4.23;1.17;;;10.10;91.60;;;;;;4983932;28;20791;-79
2023/03/27 09:56:36;;;;;;;4.93;2.70;;;10.30;92.90;;;;;;4974381;28;20880;-79
2023/03/27 09:59:10;;;;;;;4.23;1.27;;;10.40;92.50;;;;;;4975781;28;20234;-79
2023/03/27 10:01:46;;;;;;;3.83;1.27;;;10.60;92.20;;;;;;4981141;28;21112;-80
2023/03/27 10:04:18;;;;;;;2.87;0.97;;;10.80;90.90;;;;;;4981616;28;20233;-80
2023/03/27 10:06:56;;;;;;;3.80;0.90;;;10.90;91.70;;;;;;4976516;28;20297;-80
2023/03/27 10:09:33;;;;;;;3.90;1.63;;;11.10;91.40;;;;;;4970843;28;20748;-80
2023/03/27 10:12:10;;;;;;;2.47;0.87;;;11.20;91.20;;;;;;4967146;28;20222;-79
2023/03/27 10:14:40;;;;;;;3.43;1.30;;;11.20;89.70;;;;;;4977683;28;20325;-83
2023/03/27 10:17:20;;;;;;;3.30;1.00;;;11.20;90.50;;;;;;4982348;28;20223;-80
2023/03/27 10:19:50;;;;;;;2.37;0.73;;;11.30;89.90;;;;;;4982983;28;20708;-80
2023/03/27 10:22:27;;;;;;;2.77;0.90;;;11.50;90.10;;;;;;4996209;28;20573;-79
2023/03/27 10:24:57;;;;;;;1.83;0.70;;;11.70;89.40;;;;;;4978978;28;20254;-81
2023/03/27 10:27:43;;;;;;;3.43;1.10;;;11.90;88.70;;;;;;4981363;28;20330;-80
2023/03/27 10:30:32;;;;;;;2.80;1.03;;;12.20;85.80;;;;;;4980383;28;20247;-79
2023/03/27 10:33:31;;;;;;;4.13;1.33;;;12.20;82.20;;;;;;4978007;28;20233;-80
2023/03/27 10:36:11;;;;;;;4.20;0.90;;;12.10;79.60;;;;;;4980275;28;20261;-81
2023/03/27 10:38:40;;;;;;;4.00;1.13;;;11.70;83.30;;;;;;4982679;28;20237;-80
2023/03/27 10:41:28;;;;;;;2.40;0.90;;;11.30;84.40;;;;;;4976755;28;21069;-80
2023/03/27 10:43:57;;;;;;;5.00;1.27;;;10.70;86.40;;;;;;4984139;28;20752;-80
2023/03/27 10:46:27;;;;;;;1.07;0.63;;;10.10;86.20;;;;;;4978933;28;20703;-79
2023/03/27 10:49:04;;;;;;;1.27;0.70;;;9.50;87.30;;;;;;4981656;28;20275;-79
2023/03/27 10:51:45;;;;;;;1.40;0.70;;;8.80;89.40;;;;;;4978804;28;20315;-80
2023/03/27 10:54:30;;;;;;;1.80;0.50;;;8.20;90.60;;;;;;4979519;28;20924;-80
2023/03/27 10:57:01;;;;;;;3.27;0.60;;;7.60;91.80;;;;;;4979037;28;20221;-81
2023/03/27 10:59:33;;;;;;;0.90;0.50;;;7.00;92.80;;;;;;4981136;28;20221;-80
2023/03/27 11:02:04;;;;;;;1.20;0.50;;;6.40;94.00;;;;;;4979153;28;20735;-80
2023/03/27 11:04:41;;;;;;;0.80;0.50;;;5.90;95.10;;;;;;4975875;28;20229;-80
2023/03/27 11:07:19;;;;;;;1.27;0.40;;;5.40;96.70;;;;;;4977682;28;20223;-79
2023/03/27 11:09:58;;;;;;;2.17;0.60;;;5.00;97.80;;;;;;4979634;28;20219;-80
2023/03/27 11:12:33;;;;;;;52.13;4.07;;;4.70;99.60;;;;;;4981030;28;20323;-80
2023/03/27 11:15:06;;;;;;;211.40;11.87;;;4.60;99.90;;;;;;4998882;28;20228;-79
2023/03/27 11:17:39;;;;;;;110.67;10.93;;;4.60;99.90;;;;;;4978354;28;20254;-80
2023/03/27 11:20:26;;;;;;;108.27;7.17;;;4.90;99.90;;;;;;4978434;28;20228;-79
2023/03/27 11:23:15;;;;;;;92.27;5.50;;;5.20;99.90;;;;;;4980904;28;20244;-80
2023/03/27 11:26:05;;;;;;;283.27;17.70;;;5.70;99.90;;;;;;4979220;28;20244;-80
2023/03/27 11:28:41;;;;;;;39.20;2.50;;;6.30;99.90;;;;;;4979262;28;20221;-80
2023/03/27 11:31:15;;;;;;;114.27;6.37;;;6.70;99.90;;;;;;4979774;28;20220;-80
2023/03/27 11:33:52;;;;;;;33.70;2.33;;;7.20;99.90;;;;;;4965961;28;20265;-80
2023/03/27 11:36:39;;;;;;;7.37;0.93;;;7.70;99.90;;;;;;4974185;28;20233;-80
2023/03/27 11:39:49;;;;;;;7.20;0.73;;;8.10;99.90;;;;;;4970182;28;20225;-79
2023/03/27 11:42:21;;;;;;;1.83;0.33;;;8.60;99.90;;;;;;4976965;28;20222;-80
2023/03/27 11:44:49;;;;;;;1.67;0.40;;;8.90;99.90;;;;;;4972966;28;20234;-79
2023/03/27 11:47:47;;;;;;;1.20;0.60;;;9.10;99.90;;;;;;4980449;28;20816;-80
2023/03/27 11:50:26;;;;;;;1.37;0.50;;;9.30;99.90;;;;;;4971724;28;20253;-80
2023/03/27 11:53:21;;;;;;;2.17;0.60;;;9.40;99.90;;;;;;4981566;28;20761;-80
2023/03/27 11:56:31;;;;;;;0.87;0.50;;;9.30;99.70;;;;;;4979778;28;20340;-79
2023/03/27 11:59:32;;;;;;;1.00;0.40;;;9.20;99.00;;;;;;4967828;28;20221;-79
2023/03/27 12:02:16;;;;;;;3.80;0.63;;;9.00;98.80;;;;;;4994910;28;20226;-79
2023/03/27 12:04:50;;;;;;;2.67;1.03;;;8.70;98.80;;;;;;4976670;28;20745;-79
2023/03/27 12:07:48;;;;;;;2.80;0.70;;;8.50;98.60;;;;;;4980983;28;20241;-79
2023/03/27 12:10:27;;;;;;;1.30;0.53;;;8.20;98.30;;;;;;4978119;28;20411;-79
2023/03/27 12:13:37;;;;;;;2.20;0.53;;;7.90;98.20;;;;;;4981489;28;20848;-80
2023/03/27 12:16:19;;;;;;;2.47;0.57;;;7.40;98.70;;;;;;4980049;28;20234;-78
2023/03/27 12:19:02;;;;;;;1.37;0.60;;;6.90;99.70;;;;;;4978645;28;20280;-79
2023/03/27 12:21:43;;;;;;;1.77;0.60;;;6.50;99.90;;;;;;4994395;28;20237;-79
2023/03/27 12:24:25;;;;;;;7.13;0.90;;;6.30;99.90;;;;;;4973753;28;20587;-80
2023/03/27 12:27:18;;;;;;;16.97;1.50;;;6.10;99.90;;;;;;4979379;28;20225;-80
2023/03/27 12:30:06;;;;;;;13.40;1.30;;;6.00;99.90;;;;;;4980272;28;20249;-80
2023/03/27 12:33:06;;;;;;;4.93;0.50;;;6.10;99.90;;;;;;4977485;28;20251;-79
2023/03/27 12:35:39;;;;;;;0.90;0.50;;;6.40;99.90;;;;;;4915079;28;20294;-80
2023/03/27 12:38:12;;;;;;;0.90;0.50;;;6.60;99.90;;;;;;4982323;28;20220;-80
2023/03/27 12:40:41;;;;;;;1.87;0.70;;;6.80;99.90;;;;;;4995716;28;20251;-80
2023/03/27 12:43:28;;;;;;;2.97;0.70;;;7.00;99.90;;;;;;4998081;28;20220;-80
2023/03/27 12:46:15;;;;;;;2.27;0.60;;;7.10;99.90;;;;;;4982218;28;20228;-80
2023/03/27 12:48:51;;;;;;;2.70;0.97;;;7.30;99.90;;;;;;4977521;28;20225;-80
2023/03/27 12:51:18;;;;;;;2.23;0.80;;;7.40;99.90;;;;;;4980197;28;20216;-81
2023/03/27 12:53:54;;;;;;;3.17;0.80;;;7.50;99.90;;;;;;4984753;28;20489;-80
2023/03/27 12:56:35;;;;;;;1.67;0.60;;;7.70;99.90;;;;;;4977131;28;20229;-80
2023/03/27 12:59:18;;;;;;;1.97;0.90;;;7.70;99.90;;;;;;4976159;28;20232;-80
2023/03/27 13:02:18;;;;;;;5.27;1.10;;;7.80;99.90;;;;;;4979894;28;20217;-80
2023/03/27 13:05:18;;;;;;;2.90;0.77;;;7.80;99.90;;;;;;4975521;28;20291;-80
2023/03/27 13:07:53;;;;;;;3.00;0.70;;;7.70;99.90;;;;;;4977821;28;20220;-81
2023/03/27 13:10:49;;;;;;;3.20;0.70;;;7.60;99.90;;;;;;4976218;28;20228;-80
2023/03/27 13:13:36;;;;;;;3.00;0.77;;;7.50;99.90;;;;;;4992519;28;20235;-80
2023/03/27 13:16:25;;;;;;;1.90;0.80;;;7.30;99.90;;;;;;4982642;28;20228;-80
2023/03/27 13:19:14;;;;;;;2.37;0.90;;;7.20;99.90;;;;;;4973702;28;20299;-80
2023/03/27 13:22:24;;;;;;;3.33;1.00;;;7.10;99.50;;;;;;4981998;28;20229;-79
2023/03/27 13:25:11;;;;;;;3.33;1.00;;;6.90;98.90;;;;;;4981178;28;20246;-80
2023/03/27 13:27:49;;;;;;;2.27;0.77;;;6.80;97.90;;;;;;4992349;28;20232;-79
2023/03/27 13:30:41;;;;;;;2.27;0.60;;;6.60;97.00;;;;;;4980262;28;20309;-79
2023/03/27 13:33:39;;;;;;;3.93;0.80;;;6.40;96.70;;;;;;4975223;28;20308;-80
2023/03/27 13:36:13;;;;;;;3.63;1.00;;;6.20;96.90;;;;;;4983457;28;20221;-80
2023/03/27 13:39:04;;;;;;;4.27;0.73;;;6.00;97.70;;;;;;4982036;28;20658;-79